Time;durP1;ratioP1;P1;durP2;ratioP2;P2;SDS_P1;SDS_P2;PMS_P1;PMS_P2;Temp;Humidity;BMP_temperature;BMP_pressure;BME280_temperature;BME280_humidity;BME280_pressure;Samples;Min_cycle;Max_cycle;Signal;HPM_P1;HPM_P2
2021/12/19 00:01:07;;;;;;;8.60;7.70;;;;;;;3.57;91.01;98507.52;106327;1319;22523;-60
2021/12/19 00:04:00;;;;;;;10.10;9.10;;;;;;;3.62;91.12;98511.77;106311;1315;22430;-60
2021/12/19 00:09:16;;;;;;;8.30;7.50;;;;;;;3.64;91.18;98521.45;106330;1315;23220;-60
2021/12/19 00:11:44;;;;;;;9.10;8.10;;;;;;;3.68;90.65;98513.20;106341;1322;22484;-56
2021/12/19 00:14:13;;;;;;;10.10;9.20;;;;;;;3.74;91.36;98508.10;106295;1323;22540;-55
2021/12/19 00:16:41;;;;;;;10.30;9.30;;;;;;;3.85;91.39;98515.39;106295;1323;22413;-60
2021/12/19 00:19:09;;;;;;;8.80;7.90;;;;;;;3.85;90.38;98506.16;106291;1323;23207;-64
2021/12/19 00:21:39;;;;;;;12.90;11.60;;;;;;;3.83;90.26;98498.23;106311;1323;22270;-62
2021/12/19 00:24:07;;;;;;;11.80;10.40;;;;;;;3.80;90.17;98491.24;106314;1323;22488;-65
2021/12/19 00:26:36;;;;;;;10.80;9.80;;;;;;;3.78;90.27;98491.11;106339;1323;22472;-62
2021/12/19 00:29:05;;;;;;;10.70;9.60;;;;;;;3.75;90.16;98483.59;106266;1323;22475;-62
2021/12/19 00:31:33;;;;;;;9.90;8.90;;;;;;;3.74;89.75;98503.72;106323;1315;23336;-63
2021/12/19 00:34:01;;;;;;;10.20;9.20;;;;;;;3.72;89.75;98498.73;106116;1323;137983;-63
2021/12/19 00:36:30;;;;;;;9.50;8.60;;;;;;;3.72;89.67;98492.91;106266;1323;23224;-63
2021/12/19 00:38:58;;;;;;;9.70;8.80;;;;;;;3.69;89.72;98487.67;106275;1323;22579;-67
2021/12/19 00:41:26;;;;;;;9.70;8.70;;;;;;;3.70;89.88;98494.10;106272;1323;22457;-70
2021/12/19 00:43:56;;;;;;;9.80;8.80;;;;;;;3.72;89.76;98491.27;106296;1324;22496;-68
2021/12/19 00:46:26;;;;;;;10.70;9.60;;;;;;;3.75;89.79;98484.98;106275;1323;23148;-63
2021/12/19 00:48:55;;;;;;;10.70;9.60;;;;;;;3.74;89.57;98486.14;106286;1323;22613;-64
2021/12/19 00:51:25;;;;;;;8.50;7.60;;;;;;;3.75;89.50;98485.35;106241;1326;22480;-63
2021/12/19 00:53:54;;;;;;;9.60;8.70;;;;;;;3.78;89.35;98466.14;106290;1322;23155;-63
2021/12/19 00:56:24;;;;;;;10.50;9.20;;;;;;;3.78;89.39;98471.85;106307;1317;22581;-62
2021/12/19 00:58:53;;;;;;;8.80;7.90;;;;;;;3.77;89.45;98469.17;106286;1320;22487;-63
2021/12/19 01:01:21;;;;;;;8.30;7.50;;;;;;;3.77;89.56;98476.17;106301;1317;22633;-63
2021/12/19 01:03:49;;;;;;;8.30;7.50;;;;;;;3.78;89.50;98467.38;106197;1316;138275;-63
2021/12/19 01:06:19;;;;;;;9.00;8.10;;;;;;;3.77;89.71;98462.04;106332;1321;22468;-63
2021/12/19 01:08:48;;;;;;;9.80;8.90;;;;;;;3.77;89.54;98464.77;106291;1317;22444;-63
2021/12/19 01:11:17;;;;;;;11.40;10.20;;;;;;;3.75;89.50;98455.98;106287;1321;22460;-63
2021/12/19 01:13:45;;;;;;;10.60;9.60;;;;;;;3.72;89.51;98451.13;106303;1315;22411;-64
2021/12/19 01:16:15;;;;;;;12.20;11.10;;;;;;;3.70;89.90;98432.76;106287;1317;23269;-63
2021/12/19 01:18:43;;;;;;;12.40;11.10;;;;;;;3.69;89.83;98422.18;106296;1321;22272;-63
2021/12/19 01:21:12;;;;;;;13.20;11.90;;;;;;;3.68;89.75;98418.65;106296;1322;22417;-63
2021/12/19 01:23:40;;;;;;;15.10;13.80;;;;;;;3.66;89.96;98417.38;106294;1322;22489;-64
2021/12/19 01:26:09;;;;;;;14.60;13.20;;;;;;;3.60;89.99;98412.35;106353;1323;22595;-64
2021/12/19 01:28:38;;;;;;;14.20;12.90;;;;;;;3.57;90.35;98399.77;106333;1323;22541;-64
2021/12/19 01:31:06;;;;;;;15.60;14.00;;;;;;;3.54;90.70;98396.95;106292;1322;23371;-65
2021/12/19 01:33:34;;;;;;;18.50;16.80;;;;;;;3.53;90.20;98385.95;106313;1323;22556;-64
2021/12/19 01:36:03;;;;;;;18.00;16.40;;;;;;;3.51;90.51;98389.53;106325;1323;23270;-63
2021/12/19 01:38:32;;;;;;;19.60;17.80;;;;;;;3.47;90.76;98379.17;106333;1317;22448;-63
2021/12/19 01:41:01;;;;;;;18.90;17.20;;;;;;;3.45;90.68;98367.78;106359;1323;23685;-64
2021/12/19 01:43:31;;;;;;;21.50;19.40;;;;;;;3.43;90.76;98371.91;106307;1323;23206;-63
2021/12/19 01:45:59;;;;;;;23.50;21.50;;;;;;;3.43;91.21;98365.25;106335;1323;22458;-64
2021/12/19 01:48:27;;;;;;;24.20;22.10;;;;;;;3.41;91.18;98366.19;106362;1323;23172;-64
2021/12/19 01:50:55;;;;;;;25.00;22.80;;;;;;;3.37;91.16;98357.96;106004;1319;396859;-64
2021/12/19 01:53:24;;;;;;;24.10;22.10;;;;;;;3.35;91.17;98348.23;106319;1323;22368;-64
2021/12/19 01:55:52;;;;;;;24.40;22.00;;;;;;;3.34;91.24;98339.43;106312;1323;22462;-63
2021/12/19 01:58:20;;;;;;;24.20;22.10;;;;;;;3.33;91.58;98347.14;106322;1323;23339;-65
2021/12/19 02:00:52;;;;;;;29.20;26.80;;;;;;;3.29;91.60;98346.34;106313;1323;22554;-65
2021/12/19 02:03:21;;;;;;;27.00;24.50;;;;;;;3.28;91.29;98351.58;106323;1323;22537;-64
2021/12/19 02:05:50;;;;;;;22.10;19.80;;;;;;;3.28;91.59;98352.59;106274;1323;22627;-64
2021/12/19 02:08:20;;;;;;;21.70;19.70;;;;;;;3.27;91.63;98356.48;106291;1323;22525;-65
2021/12/19 02:10:48;;;;;;;20.60;18.60;;;;;;;3.27;91.43;98353.52;106248;1323;22558;-64
2021/12/19 02:13:17;;;;;;;20.10;18.40;;;;;;;3.26;91.99;98359.90;106328;1323;22377;-64
2021/12/19 02:15:46;;;;;;;23.60;21.40;;;;;;;3.26;91.91;98357.19;106337;1323;22301;-65
2021/12/19 02:18:20;;;;;;;19.60;17.90;;;;;;;3.24;91.95;98354.61;106323;1323;22419;-64
2021/12/19 02:20:53;;;;;;;20.30;18.50;;;;;;;3.23;92.25;98347.67;106322;1320;22890;-64
2021/12/19 02:23:24;;;;;;;17.30;15.80;;;;;;;3.22;92.49;98335.13;106333;1323;22559;-64
2021/12/19 02:25:54;;;;;;;17.80;16.30;;;;;;;3.20;92.89;98322.30;106332;1323;23236;-64
2021/12/19 02:28:23;;;;;;;18.30;16.70;;;;;;;3.21;92.52;98321.70;106249;1323;22495;-64
2021/12/19 02:30:52;;;;;;;17.20;15.80;;;;;;;3.25;92.33;98331.23;106312;1320;23236;-64
2021/12/19 02:33:24;;;;;;;16.90;15.50;;;;;;;3.25;92.39;98313.29;106332;1323;22475;-65
2021/12/19 02:36:04;;;;;;;16.10;14.70;;;;;;;3.26;92.48;98299.88;106324;1323;23242;-64
2021/12/19 02:39:17;;;;;;;15.80;14.30;;;;;;;3.27;92.76;98297.19;106323;1316;22515;-64
2021/12/19 02:49:44;;;;;;;14.50;13.10;;;;;;;3.32;92.46;98260.45;106321;1323;22437;-65
2021/12/19 02:52:17;;;;;;;14.80;13.40;;;;;;;3.34;92.25;98242.27;106335;1323;23583;-64
2021/12/19 02:54:45;;;;;;;14.70;13.30;;;;;;;3.36;92.47;98251.95;106262;1323;23201;-64
2021/12/19 02:57:13;;;;;;;15.40;14.10;;;;;;;3.35;92.28;98252.08;106336;1318;23288;-65
2021/12/19 02:59:41;;;;;;;16.80;15.20;;;;;;;3.34;92.44;98256.69;106316;1322;22452;-64
2021/12/19 03:02:09;;;;;;;15.60;14.20;;;;;;;3.33;92.30;98254.46;106268;1322;22417;-65
2021/12/19 03:04:37;;;;;;;16.50;14.80;;;;;;;3.31;92.30;98250.90;106316;1323;23223;-64
2021/12/19 03:07:05;;;;;;;16.40;14.90;;;;;;;3.30;92.41;98235.98;106312;1323;22510;-64
2021/12/19 03:20:30;;;;;;;23.20;20.80;;;;;;;3.14;92.52;98201.27;106302;1323;22569;-64
2021/12/19 03:22:58;;;;;;;26.10;23.50;;;;;;;3.10;92.68;98191.98;106293;1323;23317;-64
2021/12/19 03:25:28;;;;;;;28.90;26.10;;;;;;;3.05;92.90;98179.56;106322;1323;22444;-64
2021/12/19 03:27:58;;;;;;;26.00;23.50;;;;;;;3.02;92.94;98177.65;106310;1323;22579;-63
2021/12/19 03:30:27;;;;;;;25.60;22.70;;;;;;;2.97;93.05;98169.85;106311;1323;22481;-63
2021/12/19 03:32:55;;;;;;;23.10;20.90;;;;;;;2.94;92.69;98163.00;106341;1323;22339;-63
2021/12/19 03:35:24;;;;;;;22.90;20.60;;;;;;;2.92;93.13;98161.95;106301;1323;22570;-64
2021/12/19 03:37:52;;;;;;;22.30;20.20;;;;;;;2.90;93.02;98146.97;106247;1323;22585;-64
2021/12/19 03:40:23;;;;;;;23.70;21.50;;;;;;;2.91;93.34;98142.56;106268;1323;22496;-64
2021/12/19 03:42:53;;;;;;;26.50;23.70;;;;;;;2.90;93.50;98135.05;106260;1323;22520;-65
2021/12/19 03:45:23;;;;;;;23.60;21.30;;;;;;;2.88;93.14;98130.48;106254;1323;22412;-63
2021/12/19 03:47:52;;;;;;;22.10;19.90;;;;;;;2.85;93.76;98127.67;106321;1323;22449;-63
2021/12/19 03:50:23;;;;;;;23.10;20.60;;;;;;;2.84;94.00;98132.39;106329;1323;22571;-63
2021/12/19 03:52:52;;;;;;;22.30;20.20;;;;;;;2.85;93.81;98126.42;106315;1323;22632;-64
2021/12/19 03:55:24;;;;;;;22.00;19.90;;;;;;;2.86;93.64;98127.05;106259;1323;22504;-64
2021/12/19 03:57:52;;;;;;;21.80;19.80;;;;;;;2.87;93.85;98122.16;106277;1322;23235;-64
2021/12/19 04:00:26;;;;;;;23.70;21.40;;;;;;;2.89;93.57;98112.15;106289;1323;22583;-63
2021/12/19 04:02:58;;;;;;;23.90;21.60;;;;;;;2.89;93.97;98112.09;106319;1323;22494;-63
2021/12/19 04:05:27;;;;;;;22.00;20.00;;;;;;;2.88;93.85;98101.52;106299;1323;23355;-63
2021/12/19 04:07:55;;;;;;;23.50;21.20;;;;;;;2.88;93.83;98089.55;106320;1323;22515;-64
2021/12/19 04:10:24;;;;;;;20.60;18.70;;;;;;;2.88;93.81;98098.38;106356;1318;22475;-63
2021/12/19 04:12:52;;;;;;;23.60;21.20;;;;;;;2.90;93.81;98103.95;106294;1323;22575;-64
2021/12/19 04:15:21;;;;;;;26.00;23.80;;;;;;;2.90;93.96;98091.81;106318;1323;22559;-64
2021/12/19 04:17:50;;;;;;;23.20;21.10;;;;;;;2.90;93.86;98081.16;106251;1323;22400;-63
2021/12/19 04:20:19;;;;;;;21.30;19.40;;;;;;;2.89;93.97;98075.67;106213;1323;22403;-63
2021/12/19 04:22:50;;;;;;;22.80;20.60;;;;;;;2.89;94.23;98064.13;106339;1323;23248;-63
2021/12/19 04:25:19;;;;;;;22.70;20.40;;;;;;;2.90;94.55;98076.49;106351;1323;22400;-63
2021/12/19 04:27:48;;;;;;;22.80;20.50;;;;;;;2.91;94.36;98059.52;106342;1322;23140;-64
2021/12/19 04:30:21;;;;;;;23.90;21.50;;;;;;;2.90;94.61;98062.80;106323;1323;23039;-64
2021/12/19 04:33:03;;;;;;;23.60;21.30;;;;;;;2.90;94.57;98053.13;106285;1323;22400;-64
2021/12/19 04:35:36;;;;;;;23.50;21.20;;;;;;;2.88;94.54;98045.89;106327;1322;22380;-65
2021/12/19 04:54:58;;;;;;;24.10;21.60;;;;;;;2.85;94.67;98031.86;106259;1322;22372;-64
2021/12/19 05:00:01;;;;;;;24.20;22.00;;;;;;;2.86;94.45;98031.92;106301;1323;22573;-64
2021/12/19 05:15:57;;;;;;;23.10;20.90;;;;;;;2.89;95.08;98018.34;106321;1323;22472;-64
2021/12/19 05:18:28;;;;;;;24.60;22.30;;;;;;;2.91;94.90;98024.28;106318;1323;22436;-64
2021/12/19 05:21:00;;;;;;;23.80;21.70;;;;;;;2.91;94.61;98021.41;106294;1323;22454;-64
2021/12/19 05:26:00;;;;;;;22.10;19.90;;;;;;;2.94;94.77;98002.86;106297;1323;22470;-64
2021/12/19 05:28:31;;;;;;;21.90;19.60;;;;;;;2.96;94.93;98010.83;106313;1320;22468;-63
2021/12/19 05:30:59;;;;;;;22.40;20.30;;;;;;;2.99;94.82;98003.52;106308;1323;22477;-63
2021/12/19 05:33:27;;;;;;;23.50;21.30;;;;;;;3.00;94.70;97997.14;106312;1323;23188;-63
2021/12/19 05:46:45;;;;;;;24.50;21.90;;;;;;;2.96;94.69;97993.25;106294;1323;23146;-63
2021/12/19 05:49:13;;;;;;;23.90;21.70;;;;;;;2.98;94.50;97994.29;106325;1323;22361;-63
2021/12/19 05:51:41;;;;;;;24.40;21.90;;;;;;;2.96;94.24;98003.15;106296;1323;22361;-63
2021/12/19 05:54:10;;;;;;;25.10;22.70;;;;;;;2.96;94.29;97996.08;106312;1323;22524;-64
2021/12/19 05:56:41;;;;;;;24.20;21.70;;;;;;;2.96;94.44;98001.98;106307;1323;22557;-64
2021/12/19 05:59:10;;;;;;;23.40;21.20;;;;;;;2.96;94.08;98007.41;106306;1323;22308;-63
2021/12/19 06:01:39;;;;;;;25.00;22.70;;;;;;;2.99;94.05;98011.17;106321;1323;22479;-64
2021/12/19 06:04:07;;;;;;;26.60;24.10;;;;;;;2.98;94.00;98006.81;106304;1323;23267;-64
2021/12/19 06:06:35;;;;;;;24.30;22.00;;;;;;;2.95;94.08;98009.48;106334;1322;22354;-63
2021/12/19 06:09:04;;;;;;;24.60;22.40;;;;;;;2.95;94.08;98011.77;106308;1323;22514;-65
2021/12/19 06:11:33;;;;;;;25.30;22.70;;;;;;;2.95;93.93;98012.95;106318;1323;22294;-63
2021/12/19 06:14:01;;;;;;;23.20;21.20;;;;;;;2.96;94.11;98010.77;106247;1323;22463;-63
2021/12/19 06:16:30;;;;;;;24.10;22.00;;;;;;;2.98;93.85;98002.17;106289;1322;22599;-65
2021/12/19 06:18:58;;;;;;;26.90;24.50;;;;;;;2.99;93.90;97988.55;106320;1323;22538;-64
2021/12/19 06:21:26;;;;;;;24.90;22.50;;;;;;;2.97;93.89;97989.70;106309;1323;22560;-64
2021/12/19 06:23:55;;;;;;;24.40;22.20;;;;;;;2.98;93.94;97982.15;106291;1322;22577;-64
2021/12/19 06:26:23;;;;;;;23.90;21.60;;;;;;;2.98;93.82;97982.85;106304;1323;23258;-63
2021/12/19 06:28:51;;;;;;;26.20;23.70;;;;;;;2.99;93.95;97975.73;106305;1322;22587;-64
2021/12/19 06:31:20;;;;;;;25.60;23.30;;;;;;;2.99;93.61;97974.92;106331;1323;23103;-64
2021/12/19 06:33:48;;;;;;;24.80;22.40;;;;;;;2.97;93.65;97969.89;106354;1323;22434;-64
2021/12/19 06:36:17;;;;;;;23.50;21.00;;;;;;;2.96;93.40;97962.33;106273;1323;22494;-64
2021/12/19 06:38:45;;;;;;;22.20;20.00;;;;;;;2.98;93.35;97959.79;106311;1323;22643;-64
2021/12/19 06:41:13;;;;;;;23.10;20.90;;;;;;;3.00;93.53;97949.75;106257;1323;22253;-64
2021/12/19 06:43:41;;;;;;;26.50;24.20;;;;;;;3.00;93.46;97952.86;106313;1323;22313;-64
2021/12/19 06:46:09;;;;;;;25.00;22.60;;;;;;;3.00;93.49;97952.33;106276;1323;22533;-64
2021/12/19 06:48:37;;;;;;;23.90;21.80;;;;;;;3.01;93.50;97944.55;106315;1318;22561;-64
2021/12/19 06:51:05;;;;;;;21.70;19.70;;;;;;;3.03;93.58;97941.87;106298;1323;22376;-64
2021/12/19 06:53:33;;;;;;;25.10;22.80;;;;;;;3.07;93.44;97951.76;106294;1323;22572;-64
2021/12/19 06:56:01;;;;;;;23.00;20.70;;;;;;;3.09;93.37;97935.60;106288;1323;22483;-64
2021/12/19 06:58:29;;;;;;;24.40;22.30;;;;;;;3.11;93.33;97946.59;106288;1323;23045;-65
2021/12/19 07:00:57;;;;;;;23.50;21.40;;;;;;;3.13;93.39;97937.55;106284;1323;22478;-64
2021/12/19 07:03:25;;;;;;;23.20;21.10;;;;;;;3.14;93.42;97934.16;106299;1323;22572;-64
2021/12/19 07:05:53;;;;;;;22.50;20.50;;;;;;;3.16;93.07;97935.46;106292;1323;22514;-64
2021/12/19 07:08:22;;;;;;;20.70;18.60;;;;;;;3.19;93.03;97927.61;106288;1323;22577;-64
2021/12/19 07:10:51;;;;;;;24.20;22.00;;;;;;;3.21;93.09;97925.59;106301;1323;22347;-64
2021/12/19 07:13:21;;;;;;;24.00;21.70;;;;;;;3.23;93.07;97930.36;106318;1323;22666;-63
2021/12/19 07:15:50;;;;;;;20.20;18.20;;;;;;;3.25;93.25;97928.79;106305;1323;22462;-63
2021/12/19 07:18:19;;;;;;;20.60;18.70;;;;;;;3.28;93.29;97925.20;106271;1323;22540;-64
2021/12/19 07:20:48;;;;;;;20.90;19.00;;;;;;;3.32;93.28;97919.86;106293;1323;22325;-63
2021/12/19 07:23:21;;;;;;;21.80;19.50;;;;;;;3.35;93.05;97922.46;106287;1323;22492;-63
2021/12/19 07:25:50;;;;;;;21.00;19.00;;;;;;;3.38;92.99;97917.46;106298;1323;22408;-63
2021/12/19 07:28:18;;;;;;;19.30;17.50;;;;;;;3.41;93.08;97919.78;106280;1323;22468;-63
2021/12/19 07:30:48;;;;;;;20.40;18.40;;;;;;;3.45;93.16;97904.70;106308;1323;22393;-63
2021/12/19 07:33:18;;;;;;;18.60;16.80;;;;;;;3.49;93.07;97912.13;106261;1322;22465;-64
2021/12/19 07:35:48;;;;;;;15.40;13.80;;;;;;;3.53;92.60;97906.64;106285;1323;22417;-63
2021/12/19 07:38:32;;;;;;;20.20;18.40;;;;;;;3.58;92.76;97907.00;106274;1318;23326;-63
2021/12/19 07:41:02;;;;;;;16.30;14.70;;;;;;;3.61;92.44;97903.45;106109;1323;22890;-63
2021/12/19 07:43:30;;;;;;;15.20;13.80;;;;;;;3.65;92.75;97906.90;106291;1323;22481;-63
2021/12/19 07:45:58;;;;;;;15.60;14.10;;;;;;;3.69;92.49;97902.30;106279;1323;22474;-63
2021/12/19 07:48:26;;;;;;;14.70;13.30;;;;;;;3.73;92.05;97912.98;106293;1323;22290;-62
2021/12/19 07:50:54;;;;;;;16.50;14.80;;;;;;;3.73;92.18;97917.73;106293;1323;22559;-63
2021/12/19 07:53:22;;;;;;;16.00;13.10;;;;;;;3.75;91.83;97927.94;106298;1323;22431;-64
2021/12/19 07:55:50;;;;;;;15.20;13.60;;;;;;;3.77;92.07;97936.21;106322;1323;22485;-63
2021/12/19 07:58:18;;;;;;;18.60;14.30;;;;;;;3.81;92.18;97932.63;106304;1323;22804;-63
2021/12/19 08:00:47;;;;;;;16.50;14.80;;;;;;;3.86;92.06;97937.99;106300;1323;22425;-63
2021/12/19 08:03:15;;;;;;;17.70;15.70;;;;;;;3.88;91.73;97940.30;106282;1323;22958;-63
2021/12/19 08:05:43;;;;;;;16.30;14.60;;;;;;;3.89;91.89;97936.96;106295;1323;22609;-63
2021/12/19 08:08:16;;;;;;;19.30;14.70;;;;;;;3.91;92.07;97929.34;106320;1322;22414;-63
2021/12/19 08:13:12;;;;;;;15.90;14.20;;;;;;;3.91;91.57;97926.84;106316;1323;22508;-63
2021/12/19 08:15:40;;;;;;;14.20;12.70;;;;;;;3.88;91.83;97927.25;106290;1323;22419;-63
2021/12/19 08:18:08;;;;;;;14.30;12.30;;;;;;;3.84;91.95;97922.21;106259;1323;22470;-64
2021/12/19 08:20:36;;;;;;;13.50;11.00;;;;;;;3.84;91.94;97922.30;106304;1323;22504;-64
2021/12/19 08:23:04;;;;;;;13.40;12.00;;;;;;;3.84;91.94;97918.64;106315;1323;22260;-63
2021/12/19 08:25:32;;;;;;;14.90;11.40;;;;;;;3.83;92.29;97915.16;106304;1323;22419;-64
2021/12/19 08:28:00;;;;;;;12.70;10.80;;;;;;;3.84;92.07;97904.39;106271;1323;22698;-62
2021/12/19 08:30:29;;;;;;;11.60;10.40;;;;;;;3.85;91.91;97905.52;106300;1323;22324;-63
2021/12/19 08:32:58;;;;;;;15.00;10.90;;;;;;;3.86;91.89;97905.80;106279;1323;23151;-63
2021/12/19 08:35:27;;;;;;;11.00;9.50;;;;;;;3.84;92.08;97906.05;106321;1323;22466;-63
2021/12/19 08:37:54;;;;;;;11.50;10.00;;;;;;;3.85;92.13;97905.58;106310;1323;22567;-64
2021/12/19 08:40:23;;;;;;;11.10;9.50;;;;;;;3.84;92.03;97898.85;106284;1323;23206;-63
2021/12/19 08:42:52;;;;;;;11.30;9.30;;;;;;;3.86;91.93;97904.95;106287;1323;22523;-63
2021/12/19 08:45:21;;;;;;;14.20;10.50;;;;;;;3.88;92.01;97921.05;106302;1323;22530;-63
2021/12/19 08:47:50;;;;;;;11.40;9.90;;;;;;;3.87;91.83;97907.35;106084;1323;22541;-63
2021/12/19 08:50:18;;;;;;;14.40;10.80;;;;;;;3.87;92.05;97900.95;106311;1323;22398;-63
2021/12/19 08:52:47;;;;;;;11.80;8.60;;;;;;;3.88;91.55;97907.37;106311;1323;22528;-63
2021/12/19 08:55:15;;;;;;;11.20;10.00;;;;;;;3.89;91.97;97904.02;106286;1323;22546;-64
2021/12/19 08:57:43;;;;;;;12.90;11.10;;;;;;;3.90;92.07;97907.64;106247;1322;22595;-63
2021/12/19 09:00:13;;;;;;;15.40;13.80;;;;;;;3.92;92.04;97908.51;106277;1323;22411;-63
2021/12/19 09:02:44;;;;;;;14.50;13.00;;;;;;;3.94;91.91;97908.64;106314;1323;22280;-63
2021/12/19 09:05:13;;;;;;;15.80;13.00;;;;;;;3.97;92.16;97912.70;106299;1323;23142;-62
2021/12/19 09:07:41;;;;;;;16.40;14.60;;;;;;;3.97;91.92;97911.48;106299;1323;22414;-63
2021/12/19 09:10:10;;;;;;;19.10;16.50;;;;;;;3.98;91.79;97906.31;106291;1323;22515;-63
2021/12/19 09:12:38;;;;;;;18.40;16.20;;;;;;;3.97;91.72;97899.60;106248;1323;22928;-63
2021/12/19 09:15:07;;;;;;;16.40;14.60;;;;;;;3.96;91.83;97895.53;106292;1323;22458;-63
2021/12/19 09:17:35;;;;;;;16.70;14.10;;;;;;;3.95;91.93;97898.84;106274;1322;22676;-63
2021/12/19 09:20:07;;;;;;;16.40;14.50;;;;;;;3.95;91.76;97897.83;106294;1323;22311;-64
2021/12/19 09:22:39;;;;;;;16.20;13.40;;;;;;;3.99;91.91;97889.41;106256;1322;22314;-63
2021/12/19 09:25:21;;;;;;;14.30;12.80;;;;;;;4.01;91.65;97883.63;106233;1322;138265;-64
2021/12/19 09:27:54;;;;;;;13.00;11.70;;;;;;;3.99;91.66;97877.33;106307;1323;22378;-63
2021/12/19 09:30:27;;;;;;;15.00;12.00;;;;;;;4.00;91.94;97874.49;106273;1323;22454;-64
2021/12/19 09:32:55;;;;;;;13.10;11.80;;;;;;;4.03;91.86;97876.98;106296;1323;22586;-63
2021/12/19 09:35:27;;;;;;;14.50;12.90;;;;;;;4.03;91.68;97875.32;106289;1323;22475;-63
2021/12/19 09:38:03;;;;;;;14.70;13.30;;;;;;;4.02;91.76;97874.04;106285;1322;22552;-63
2021/12/19 09:40:34;;;;;;;14.20;12.80;;;;;;;4.03;91.67;97871.79;106320;1319;23031;-63
2021/12/19 09:43:41;;;;;;;16.90;15.20;;;;;;;4.06;91.77;97863.98;106293;1321;22514;-63
2021/12/19 09:46:18;;;;;;;19.10;15.40;;;;;;;4.10;91.71;97860.80;106297;1323;22290;-64
2021/12/19 09:48:48;;;;;;;17.30;15.60;;;;;;;4.11;91.83;97851.27;106282;1323;22583;-63
2021/12/19 09:51:17;;;;;;;15.70;14.10;;;;;;;4.10;91.64;97840.76;106076;1322;268192;-63
2021/12/19 09:53:47;;;;;;;16.90;15.20;;;;;;;4.09;91.80;97841.56;106294;1316;22541;-63
2021/12/19 09:56:15;;;;;;;17.20;15.30;;;;;;;4.12;91.60;97836.91;106133;1318;138490;-62
2021/12/19 09:58:46;;;;;;;20.20;17.10;;;;;;;4.14;91.61;97848.49;106315;1318;22678;-63
2021/12/19 10:01:17;;;;;;;18.10;16.20;;;;;;;4.12;91.63;97843.80;106294;1323;23088;-63
2021/12/19 10:03:45;;;;;;;16.10;14.50;;;;;;;4.13;91.47;97847.22;106283;1323;23019;-63
2021/12/19 10:06:24;;;;;;;16.90;13.80;;;;;;;4.16;91.54;97837.16;106249;1323;22522;-63
2021/12/19 10:09:15;;;;;;;16.30;14.70;;;;;;;4.19;91.12;97837.55;106277;1323;22608;-63
2021/12/19 10:12:10;;;;;;;15.20;13.50;;;;;;;4.19;91.48;97837.17;106247;1323;22295;-64
2021/12/19 10:14:41;;;;;;;15.30;13.60;;;;;;;4.20;91.20;97827.15;106266;1323;23175;-64
2021/12/19 10:17:20;;;;;;;17.00;14.30;;;;;;;4.21;91.09;97822.09;106254;1323;22373;-63
2021/12/19 10:19:51;;;;;;;17.70;15.90;;;;;;;4.26;90.98;97813.73;106272;1323;23103;-63
2021/12/19 10:22:39;;;;;;;13.50;11.40;;;;;;;4.25;91.08;97816.98;106250;1323;23636;-64
2021/12/19 10:25:07;;;;;;;14.20;11.80;;;;;;;4.25;90.85;97811.13;106155;1323;138751;-64
2021/12/19 10:27:49;;;;;;;13.90;12.10;;;;;;;4.28;90.82;97800.69;106286;1323;23212;-63
2021/12/19 10:30:20;;;;;;;14.30;12.70;;;;;;;4.32;90.38;97799.90;106276;1323;22286;-64
2021/12/19 10:32:59;;;;;;;11.80;10.50;;;;;;;4.32;90.54;97788.84;106322;1323;22489;-61
2021/12/19 10:35:53;;;;;;;13.00;10.50;;;;;;;4.35;90.18;97791.31;106271;1323;22402;-63
2021/12/19 10:38:23;;;;;;;11.60;10.50;;;;;;;4.37;90.32;97785.83;106282;1323;22490;-62
2021/12/19 10:40:56;;;;;;;13.00;11.70;;;;;;;4.37;90.23;97782.69;106267;1323;22407;-62
2021/12/19 10:43:31;;;;;;;11.40;10.00;;;;;;;4.37;90.30;97775.96;106271;1323;22407;-64
2021/12/19 10:46:03;;;;;;;11.00;9.80;;;;;;;4.38;90.65;97767.53;106260;1323;23079;-64
2021/12/19 10:48:41;;;;;;;10.90;9.80;;;;;;;4.38;90.30;97761.50;106285;1323;22430;-62
2021/12/19 10:51:22;;;;;;;11.40;10.20;;;;;;;4.38;90.26;97761.56;106285;1324;22649;-63
2021/12/19 10:54:00;;;;;;;12.40;10.20;;;;;;;4.35;90.11;97764.64;106215;1324;22492;-63
2021/12/19 10:56:29;;;;;;;12.50;11.30;;;;;;;4.30;90.08;97747.19;106227;1323;23047;-64
2021/12/19 10:59:07;;;;;;;12.90;11.70;;;;;;;4.33;90.29;97747.56;106259;1322;23150;-64
2021/12/19 11:01:39;;;;;;;13.10;11.50;;;;;;;4.34;90.21;97747.14;106321;1323;22316;-63
2021/12/19 11:04:10;;;;;;;12.10;10.60;;;;;;;4.38;89.87;97738.29;106275;1323;23006;-64
2021/12/19 11:06:47;;;;;;;11.40;10.20;;;;;;;4.38;89.80;97736.05;106254;1323;22403;-63
2021/12/19 11:09:17;;;;;;;11.20;10.00;;;;;;;4.35;89.40;97741.91;106239;1323;22413;-63
2021/12/19 11:11:53;;;;;;;10.90;9.70;;;;;;;4.31;89.65;97734.76;106306;1322;23078;-63
2021/12/19 11:14:37;;;;;;;11.80;10.00;;;;;;;4.31;89.19;97740.84;106272;1322;22477;-64
2021/12/19 11:17:09;;;;;;;15.70;10.20;;;;;;;4.27;89.61;97727.54;106264;1323;22445;-65
2021/12/19 11:19:39;;;;;;;10.50;8.80;;;;;;;4.21;89.76;97724.27;106260;1323;22245;-65
2021/12/19 11:22:23;;;;;;;9.20;8.20;;;;;;;4.18;89.86;97722.83;106245;1323;22453;-63
2021/12/19 11:24:59;;;;;;;11.70;9.80;;;;;;;4.18;89.86;97714.56;106263;1323;22474;-63
2021/12/19 11:27:28;;;;;;;;;;;;;;;4.17;89.88;97709.48;106235;1323;22564;-64
2021/12/19 11:29:58;;;;;;;13.30;11.00;;;;;;;4.15;90.01;97712.92;106276;1323;22523;-64
2021/12/19 11:32:37;;;;;;;13.10;11.20;;;;;;;4.14;89.85;97711.72;106238;1323;23562;-63
2021/12/19 11:35:12;;;;;;;15.20;13.50;;;;;;;4.12;89.94;97694.53;106248;1323;23157;-63
2021/12/19 11:37:46;;;;;;;14.50;13.00;;;;;;;4.14;90.08;97701.20;106238;1325;22548;-64
2021/12/19 11:40:17;;;;;;;14.00;12.50;;;;;;;4.16;90.11;97685.90;106282;1323;22744;-64
2021/12/19 11:42:45;;;;;;;14.20;12.40;;;;;;;4.15;90.06;97685.26;106248;1323;22455;-64
2021/12/19 11:47:53;;;;;;;17.00;15.30;;;;;;;4.13;90.40;97680.67;106293;1323;22493;-63
2021/12/19 11:50:26;;;;;;;15.70;14.10;;;;;;;4.14;89.96;97669.64;106259;1324;22506;-64
2021/12/19 11:53:09;;;;;;;18.00;16.20;;;;;;;4.17;90.15;97665.27;106276;1323;22456;-64
2021/12/19 11:56:06;;;;;;;17.30;15.70;;;;;;;4.12;90.34;97677.94;106283;1323;22475;-63
2021/12/19 11:58:38;;;;;;;17.70;15.90;;;;;;;4.12;90.42;97658.80;106059;1324;138774;-63
2021/12/19 12:01:12;;;;;;;16.60;15.00;;;;;;;4.14;90.26;97659.34;106301;1323;23017;-62
2021/12/19 12:03:44;;;;;;;16.90;15.20;;;;;;;4.15;90.08;97659.17;106279;1323;22527;-62
2021/12/19 12:06:17;;;;;;;15.40;13.80;;;;;;;4.13;90.43;97664.83;106263;1323;22397;-62
2021/12/19 12:09:08;;;;;;;14.80;13.30;;;;;;;4.12;90.01;97656.91;106250;1324;22626;-62
2021/12/19 12:11:39;;;;;;;11.30;10.20;;;;;;;4.09;89.98;97666.80;106279;1323;22595;-62
2021/12/19 12:14:27;;;;;;;13.30;12.10;;;;;;;4.06;90.24;97661.88;106263;1325;22585;-62
2021/12/19 12:17:03;;;;;;;12.00;10.80;;;;;;;4.02;90.12;97648.27;106219;1319;22470;-62
2021/12/19 12:19:53;;;;;;;9.90;8.90;;;;;;;3.98;89.94;97648.04;106260;1323;22586;-63
2021/12/19 12:25:11;;;;;;;10.40;8.70;;;;;;;3.93;89.82;97642.33;106222;1317;22464;-62
2021/12/19 12:27:52;;;;;;;9.20;8.30;;;;;;;3.91;89.95;97643.54;106260;1324;22436;-62
2021/12/19 12:30:25;;;;;;;9.60;8.20;;;;;;;3.85;89.85;97640.05;106161;1324;138255;-63
2021/12/19 12:32:55;;;;;;;7.00;6.30;;;;;;;3.84;90.04;97625.82;106238;1324;22471;-62
2021/12/19 12:35:25;;;;;;;7.10;6.30;;;;;;;3.84;89.91;97617.08;106274;1323;22511;-62
2021/12/19 12:37:54;;;;;;;8.60;7.50;;;;;;;3.86;89.76;97616.07;106258;1323;22514;-63
2021/12/19 12:43:05;;;;;;;8.10;7.20;;;;;;;3.85;89.70;97611.48;106260;1323;22366;-62
2021/12/19 12:45:47;;;;;;;10.40;8.00;;;;;;;3.85;89.59;97605.88;106231;1323;22606;-63
2021/12/19 12:48:31;;;;;;;10.50;9.50;;;;;;;3.86;89.29;97597.83;106271;1323;22486;-63
2021/12/19 12:51:01;;;;;;;10.10;9.10;;;;;;;3.90;89.52;97602.96;106185;1323;22417;-63
2021/12/19 12:53:50;;;;;;;11.00;9.70;;;;;;;3.90;89.28;97604.19;106259;1323;22556;-62
2021/12/19 12:56:23;;;;;;;11.40;9.50;;;;;;;3.91;89.14;97609.52;106247;1323;22306;-63